createdAt,value
2023-05-06T00:00:36.018Z,1.93
2023-05-06T00:03:04.064Z,2.37
2023-05-06T00:05:32.825Z,1.83
2023-05-06T00:08:02.145Z,1.20
2023-05-06T00:10:30.087Z,1.83
2023-05-06T00:12:58.098Z,2.13
2023-05-06T00:15:26.076Z,1.50
2023-05-06T00:17:55.571Z,1.90
2023-05-06T00:20:23.673Z,1.60
2023-05-06T00:22:51.616Z,1.70
2023-05-06T00:25:21.340Z,2.10
2023-05-06T00:27:49.306Z,1.93
2023-05-06T00:30:17.292Z,1.97
2023-05-06T00:32:45.286Z,1.80
2023-05-06T00:35:13.731Z,1.77
2023-05-06T00:37:41.815Z,1.83
2023-05-06T00:40:11.426Z,1.80
2023-05-06T00:42:40.704Z,1.90
2023-05-06T00:45:09.817Z,1.80
2023-05-06T00:47:38.050Z,1.77
2023-05-06T00:50:07.117Z,2.53
2023-05-06T00:52:35.215Z,1.40
2023-05-06T00:55:03.251Z,1.90
2023-05-06T00:57:31.235Z,1.83
2023-05-06T01:00:00.531Z,1.83
2023-05-06T01:02:39.568Z,1.43
2023-05-06T01:05:14.702Z,1.60
2023-05-06T01:07:49.904Z,1.50
2023-05-06T01:10:25.482Z,1.87
2023-05-06T01:13:02.996Z,1.93
2023-05-06T01:15:37.916Z,1.90
2023-05-06T01:18:11.235Z,1.50
2023-05-06T01:20:39.794Z,1.80
2023-05-06T01:23:12.388Z,1.70
2023-05-06T01:25:40.712Z,2.20
2023-05-06T01:28:10.504Z,2.00
2023-05-06T01:30:45.500Z,2.10
2023-05-06T01:33:20.018Z,1.90
2023-05-06T01:35:55.954Z,2.00
2023-05-06T01:38:33.020Z,2.13
2023-05-06T01:41:03.062Z,2.07
2023-05-06T01:43:38.722Z,1.97
2023-05-06T01:46:12.425Z,2.00
2023-05-06T01:48:41.628Z,1.90
2023-05-06T01:51:09.703Z,1.93
2023-05-06T01:53:39.015Z,2.13
2023-05-06T01:56:08.017Z,1.90
2023-05-06T01:58:36.053Z,2.03
2023-05-06T02:01:04.011Z,2.03
2023-05-06T02:03:35.035Z,2.37
2023-05-06T02:06:03.112Z,2.13
2023-05-06T02:08:31.153Z,2.27
2023-05-06T02:11:00.417Z,1.97
2023-05-06T02:13:28.349Z,2.00
2023-05-06T02:15:56.440Z,1.73
2023-05-06T02:18:25.400Z,1.90
2023-05-06T02:20:53.298Z,2.03
2023-05-06T02:23:21.233Z,2.30
2023-05-06T02:25:50.140Z,2.17
2023-05-06T02:28:19.455Z,2.33
2023-05-06T02:30:47.410Z,2.47
2023-05-06T02:33:15.289Z,2.40
2023-05-06T02:35:43.195Z,2.37
2023-05-06T02:38:11.097Z,2.50
2023-05-06T02:40:39.083Z,1.93
2023-05-06T02:43:07.004Z,2.23
2023-05-06T02:45:36.377Z,2.10
2023-05-06T02:48:04.564Z,2.50
2023-05-06T02:50:32.497Z,2.60
2023-05-06T02:53:00.359Z,2.23
2023-05-06T02:55:28.266Z,2.37
2023-05-06T02:57:56.169Z,2.47
2023-05-06T03:00:24.284Z,2.33
2023-05-06T03:02:53.616Z,1.97
2023-05-06T03:05:22.145Z,2.00
2023-05-06T03:07:50.045Z,1.90
2023-05-06T03:10:18.042Z,1.60
2023-05-06T03:12:45.959Z,2.33
2023-05-06T03:15:13.875Z,2.33
2023-05-06T03:17:41.767Z,2.60
2023-05-06T03:20:11.708Z,2.67
2023-05-06T03:22:39.643Z,3.03
2023-05-06T03:25:08.447Z,3.60
2023-05-06T03:27:36.552Z,3.20
2023-05-06T03:30:05.665Z,2.80
2023-05-06T03:32:33.609Z,2.10
2023-05-06T03:35:01.609Z,2.00
2023-05-06T03:37:31.495Z,1.70
2023-05-06T03:40:00.670Z,2.50
2023-05-06T03:42:28.600Z,3.03
2023-05-06T03:44:56.537Z,3.03
2023-05-06T03:47:24.442Z,3.40
2023-05-06T03:49:52.405Z,3.30
2023-05-06T03:52:20.370Z,3.17
2023-05-06T03:54:49.598Z,4.07
2023-05-06T03:57:17.462Z,3.00
2023-05-06T03:59:45.354Z,2.90
2023-05-06T04:02:13.242Z,2.30
2023-05-06T04:04:42.437Z,3.33
2023-05-06T04:07:10.326Z,2.77
2023-05-06T04:09:38.300Z,2.70
2023-05-06T04:12:08.045Z,2.10
2023-05-06T04:14:36.017Z,2.43
2023-05-06T04:17:03.898Z,2.03
2023-05-06T04:19:32.133Z,2.43
2023-05-06T04:22:00.045Z,2.50
2023-05-06T04:24:29.395Z,2.40
2023-05-06T04:26:57.299Z,1.97
2023-05-06T04:29:27.042Z,2.03
2023-05-06T04:31:55.227Z,2.53
2023-05-06T04:34:24.962Z,2.20
2023-05-06T04:36:54.193Z,2.70
2023-05-06T04:39:22.107Z,2.50
2023-05-06T04:41:50.030Z,3.30
2023-05-06T04:44:19.390Z,1.70
2023-05-06T04:46:48.666Z,1.93
2023-05-06T04:49:16.569Z,2.20
2023-05-06T04:51:44.461Z,2.87
2023-05-06T04:54:12.403Z,2.80
2023-05-06T04:56:40.323Z,2.83
2023-05-06T04:59:08.203Z,2.87
2023-05-06T05:01:36.126Z,2.63
2023-05-06T05:04:05.513Z,2.00
2023-05-06T05:06:33.464Z,2.10
2023-05-06T05:09:01.486Z,1.80
2023-05-06T05:11:29.414Z,1.30
2023-05-06T05:13:59.582Z,1.40
2023-05-06T05:16:29.727Z,1.50
2023-05-06T05:18:57.695Z,1.77
2023-05-06T05:21:27.622Z,2.20
2023-05-06T05:23:55.562Z,1.87
2023-05-06T05:26:23.447Z,2.00
2023-05-06T05:28:51.345Z,2.50
2023-05-06T05:31:19.303Z,2.17
2023-05-06T05:33:47.385Z,2.10
2023-05-06T05:36:16.072Z,2.23
2023-05-06T05:38:45.431Z,2.63
2023-05-06T05:41:14.524Z,2.70
2023-05-06T05:43:44.135Z,3.00
2023-05-06T05:46:12.118Z,3.10
2023-05-06T05:48:40.635Z,3.30
2023-05-06T05:51:08.599Z,3.73
2023-05-06T05:53:36.486Z,3.30
2023-05-06T05:56:06.307Z,3.20
2023-05-06T05:58:35.165Z,3.60
2023-05-06T06:01:04.120Z,2.50
2023-05-06T06:03:32.233Z,2.53
2023-05-06T06:06:00.414Z,2.80
2023-05-06T06:08:29.747Z,3.10
2023-05-06T06:10:57.693Z,3.10
2023-05-06T06:13:28.770Z,2.50
2023-05-06T06:15:57.519Z,2.47
2023-05-06T06:18:25.442Z,3.30
2023-05-06T06:20:53.711Z,3.63
2023-05-06T06:23:21.959Z,3.10
2023-05-06T06:25:50.068Z,3.10
2023-05-06T06:28:18.026Z,3.10
2023-05-06T06:30:47.284Z,2.60
2023-05-06T06:33:15.216Z,2.10
2023-05-06T06:35:43.123Z,2.70
2023-05-06T06:38:11.047Z,2.97
2023-05-06T06:40:38.943Z,3.00
2023-05-06T06:43:06.906Z,2.80
2023-05-06T06:45:34.867Z,2.83
2023-05-06T06:48:04.409Z,3.17
2023-05-06T06:50:32.798Z,2.80
2023-05-06T06:53:01.204Z,2.77
2023-05-06T06:55:29.142Z,2.57
2023-05-06T06:57:57.102Z,2.33
2023-05-06T07:00:25.280Z,1.77
2023-05-06T07:02:53.918Z,1.73
2023-05-06T07:05:24.014Z,1.60
2023-05-06T07:07:51.926Z,1.60
2023-05-06T07:10:19.973Z,1.57
2023-05-06T07:12:47.973Z,1.17
2023-05-06T07:15:15.930Z,1.57
2023-05-06T07:17:43.878Z,1.53
2023-05-06T07:20:13.005Z,1.57
2023-05-06T07:22:42.367Z,1.63
2023-05-06T07:25:11.180Z,1.57
2023-05-06T07:27:39.432Z,1.00
2023-05-06T07:30:09.057Z,1.20
2023-05-06T07:32:37.038Z,0.90
2023-05-06T07:35:05.727Z,1.57
2023-05-06T07:37:33.776Z,1.30
2023-05-06T07:40:03.133Z,1.10
2023-05-06T07:42:31.089Z,1.13
2023-05-06T07:44:59.010Z,1.03
2023-05-06T07:47:29.187Z,1.00
2023-05-06T07:49:57.270Z,1.30
2023-05-06T07:52:25.996Z,1.30
2023-05-06T07:54:54.533Z,1.50
2023-05-06T07:57:23.825Z,0.90
2023-05-06T07:59:52.870Z,1.10
2023-05-06T08:02:21.090Z,1.17
2023-05-06T08:04:51.482Z,1.40
2023-05-06T08:07:19.980Z,1.30
2023-05-06T08:09:48.031Z,1.20
2023-05-06T08:12:17.459Z,0.90
2023-05-06T08:14:46.745Z,0.90
2023-05-06T08:17:14.723Z,1.10
2023-05-06T08:19:42.668Z,1.00
2023-05-06T08:22:10.615Z,1.27
2023-05-06T08:24:38.649Z,1.10
2023-05-06T08:27:06.586Z,0.90
2023-05-06T08:29:34.509Z,1.00
2023-05-06T08:32:03.951Z,0.90
2023-05-06T08:34:32.129Z,0.90
2023-05-06T08:37:00.206Z,1.20
2023-05-06T08:39:28.857Z,0.70
2023-05-06T08:41:58.771Z,1.03
2023-05-06T08:44:26.856Z,1.00
2023-05-06T08:46:54.984Z,0.83
2023-05-06T08:49:24.453Z,0.90
2023-05-06T08:51:53.231Z,1.10
2023-05-06T08:54:22.726Z,1.00
2023-05-06T08:56:54.716Z,1.03
2023-05-06T08:59:25.638Z,0.80
2023-05-06T09:01:54.226Z,0.90
2023-05-06T09:04:22.303Z,0.80
2023-05-06T09:06:51.583Z,1.17
2023-05-06T09:09:19.507Z,0.93
2023-05-06T09:11:53.850Z,0.80
2023-05-06T09:14:22.934Z,1.10
2023-05-06T09:16:53.283Z,0.90
2023-05-06T09:19:23.280Z,0.60
2023-05-06T09:21:53.075Z,0.70
2023-05-06T09:24:23.143Z,0.60
2023-05-06T09:26:55.039Z,1.00
2023-05-06T09:29:23.034Z,0.83
2023-05-06T09:31:52.628Z,1.17
2023-05-06T09:34:21.156Z,0.87
2023-05-06T09:36:49.069Z,1.10
2023-05-06T09:39:18.370Z,0.63
2023-05-06T09:41:46.559Z,0.90
2023-05-06T09:44:14.515Z,0.97
2023-05-06T09:46:42.946Z,0.87
2023-05-06T09:49:11.544Z,1.00
2023-05-06T09:51:41.432Z,0.60
2023-05-06T09:54:10.001Z,0.70
2023-05-06T09:56:39.933Z,0.60
2023-05-06T09:59:08.674Z,0.80
2023-05-06T10:01:37.822Z,0.70
2023-05-06T10:04:10.861Z,0.60
2023-05-06T10:06:41.494Z,0.97
2023-05-06T10:09:10.344Z,1.03
2023-05-06T10:11:40.452Z,0.73
2023-05-06T10:14:09.154Z,0.77
2023-05-06T10:16:40.050Z,0.90
2023-05-06T10:19:09.312Z,0.70
2023-05-06T10:21:40.961Z,0.83
2023-05-06T10:24:12.348Z,0.80
2023-05-06T10:26:43.464Z,0.97
2023-05-06T10:29:12.598Z,0.87
2023-05-06T10:31:45.471Z,0.60
2023-05-06T10:34:13.597Z,0.97
2023-05-06T10:36:44.608Z,1.07
2023-05-06T10:39:14.233Z,0.90
2023-05-06T10:41:43.718Z,0.90
2023-05-06T10:44:12.818Z,0.77
2023-05-06T10:46:59.552Z,0.70
2023-05-06T10:49:29.007Z,0.80
2023-05-06T10:52:17.159Z,0.73
2023-05-06T10:54:50.091Z,0.60
2023-05-06T10:57:20.791Z,2.90
2023-05-06T10:59:49.645Z,1.03
2023-05-06T11:02:20.283Z,0.70
2023-05-06T11:04:52.849Z,0.70
2023-05-06T11:07:24.976Z,0.80
2023-05-06T11:09:57.145Z,0.67
2023-05-06T11:12:46.914Z,1.17
2023-05-06T11:15:24.786Z,0.57
2023-05-06T11:17:54.389Z,0.87
2023-05-06T11:20:23.714Z,0.90
2023-05-06T11:22:51.662Z,0.80
2023-05-06T11:25:42.001Z,1.00
2023-05-06T11:28:12.750Z,0.93
2023-05-06T11:30:43.420Z,0.90
2023-05-06T11:33:19.145Z,1.00
2023-05-06T11:35:47.446Z,0.80
2023-05-06T11:38:15.443Z,0.77
2023-05-06T11:40:43.543Z,0.97
2023-05-06T11:43:13.843Z,1.10
2023-05-06T11:45:43.080Z,0.90
2023-05-06T11:48:13.249Z,0.80
2023-05-06T11:50:45.493Z,1.07
2023-05-06T11:53:13.624Z,0.80
2023-05-06T11:55:41.603Z,0.90
2023-05-06T11:58:16.431Z,1.30
2023-05-06T12:00:51.304Z,1.20
2023-05-06T12:03:20.468Z,1.30
2023-05-06T12:05:49.230Z,1.00
2023-05-06T12:08:26.699Z,1.20
2023-05-06T12:10:57.291Z,1.50
2023-05-06T12:13:27.626Z,1.40
2023-05-06T12:15:56.351Z,1.40
2023-05-06T12:18:25.148Z,1.00
2023-05-06T12:20:55.022Z,0.90
2023-05-06T12:23:23.276Z,1.40
2023-05-06T12:26:02.368Z,1.03
2023-05-06T12:28:32.849Z,1.30
2023-05-06T12:31:01.471Z,1.00
2023-05-06T12:33:44.515Z,0.90
2023-05-06T12:36:12.934Z,0.70
2023-05-06T12:38:50.350Z,1.40
2023-05-06T12:41:19.490Z,0.80
2023-05-06T12:43:48.888Z,1.00
2023-05-06T12:46:17.779Z,1.30
2023-05-06T12:48:58.188Z,1.40
2023-05-06T12:51:26.695Z,1.73
2023-05-06T12:53:54.957Z,1.20
2023-05-06T12:56:22.918Z,1.60
2023-05-06T12:58:59.371Z,1.40
2023-05-06T13:01:27.431Z,1.40
2023-05-06T13:03:56.570Z,1.30
2023-05-06T13:06:24.582Z,1.30
2023-05-06T13:08:52.592Z,1.27
2023-05-06T13:11:22.088Z,1.40
2023-05-06T13:13:50.010Z,1.10
2023-05-06T13:16:19.340Z,1.23
2023-05-06T13:18:47.369Z,1.50
2023-05-06T13:21:15.777Z,1.23
2023-05-06T13:23:47.381Z,1.50
2023-05-06T13:26:15.766Z,1.40
2023-05-06T13:28:43.725Z,1.30
2023-05-06T13:31:11.934Z,1.40
2023-05-06T13:33:41.239Z,1.20
2023-05-06T13:36:09.625Z,1.20
2023-05-06T13:38:37.572Z,0.90
2023-05-06T13:41:05.684Z,1.10
2023-05-06T13:43:33.626Z,1.23
2023-05-06T13:46:01.639Z,1.30
2023-05-06T13:48:29.641Z,1.60
2023-05-06T13:50:58.939Z,1.40
2023-05-06T13:53:26.860Z,1.50
2023-05-06T13:55:54.821Z,1.57
2023-05-06T13:58:22.760Z,1.67
2023-05-06T14:00:50.735Z,1.50
2023-05-06T14:03:18.680Z,1.60
2023-05-06T14:05:46.694Z,1.30
2023-05-06T14:08:15.946Z,1.97
2023-05-06T14:10:43.927Z,1.47
2023-05-06T14:13:12.185Z,1.77
2023-05-06T14:15:40.112Z,1.60
2023-05-06T14:18:08.069Z,1.67
2023-05-06T14:20:36.028Z,1.20
2023-05-06T14:23:05.939Z,1.50
2023-05-06T14:25:35.271Z,1.40
2023-05-06T14:28:03.258Z,1.80
2023-05-06T14:30:32.342Z,1.50
2023-05-06T14:33:00.615Z,1.40
2023-05-06T14:35:28.598Z,1.30
2023-05-06T14:37:56.589Z,1.63
2023-05-06T14:40:24.651Z,1.90
2023-05-06T14:42:54.072Z,1.87
2023-05-06T14:45:22.044Z,1.90
2023-05-06T14:47:50.034Z,1.27
2023-05-06T14:50:18.415Z,1.80
2023-05-06T14:52:46.724Z,2.10
2023-05-06T14:55:14.917Z,1.70
2023-05-06T14:57:42.835Z,1.97
2023-05-06T15:00:14.778Z,1.90
2023-05-06T15:02:42.960Z,1.93
2023-05-06T15:05:12.122Z,1.90
2023-05-06T15:07:40.483Z,1.80
2023-05-06T15:10:08.917Z,1.73
2023-05-06T15:12:37.499Z,1.50
2023-05-06T15:15:06.687Z,3.70
2023-05-06T15:17:36.367Z,2.03
2023-05-06T15:20:06.690Z,1.73
2023-05-06T15:22:34.962Z,1.60
2023-05-06T15:25:04.117Z,1.40
2023-05-06T15:27:32.452Z,2.10
2023-05-06T15:30:04.085Z,1.77
2023-05-06T15:32:32.220Z,1.77
2023-05-06T15:35:04.725Z,2.30
2023-05-06T15:37:33.392Z,2.50
2023-05-06T15:40:01.507Z,1.93
2023-05-06T15:42:30.339Z,1.80
2023-05-06T15:44:59.023Z,1.80
2023-05-06T15:47:26.975Z,1.70
2023-05-06T15:50:11.222Z,1.70
2023-05-06T15:52:45.002Z,1.67
2023-05-06T15:55:13.750Z,1.80
2023-05-06T15:57:43.069Z,2.10
2023-05-06T16:00:12.963Z,1.50
2023-05-06T16:02:41.234Z,2.13
2023-05-06T16:05:10.377Z,1.80
2023-05-06T16:07:38.384Z,3.37
2023-05-06T16:10:09.191Z,2.90
2023-05-06T16:12:37.377Z,2.87
2023-05-06T16:15:06.126Z,2.07
2023-05-06T16:17:37.446Z,2.10
2023-05-06T16:20:06.544Z,1.67
2023-05-06T16:22:34.432Z,1.80
2023-05-06T16:25:02.504Z,2.30
2023-05-06T16:27:31.769Z,1.83
2023-05-06T16:29:59.925Z,4.43
2023-05-06T16:32:27.958Z,1.70
2023-05-06T16:34:55.946Z,1.80
2023-05-06T16:37:23.876Z,2.40
2023-05-06T16:39:51.808Z,1.90
2023-05-06T16:42:19.767Z,1.97
2023-05-06T16:44:50.223Z,1.60
2023-05-06T16:47:23.147Z,1.60
2023-05-06T16:49:51.515Z,1.90
2023-05-06T16:52:20.175Z,1.90
2023-05-06T16:54:48.121Z,1.40
2023-05-06T16:57:16.052Z,1.70
2023-05-06T16:59:44.221Z,1.80
2023-05-06T17:02:13.527Z,2.23
2023-05-06T17:04:42.953Z,2.23
2023-05-06T17:07:11.344Z,1.73
2023-05-06T17:09:40.140Z,1.70
2023-05-06T17:12:08.845Z,1.63
2023-05-06T17:14:36.808Z,1.70
2023-05-06T17:17:05.415Z,1.50
2023-05-06T17:19:34.952Z,1.70
2023-05-06T17:22:02.891Z,1.80
2023-05-06T17:24:30.830Z,1.37
2023-05-06T17:26:58.756Z,1.60
2023-05-06T17:29:26.752Z,1.30
2023-05-06T17:31:54.724Z,1.00
2023-05-06T17:34:22.719Z,1.30
2023-05-06T17:36:52.075Z,1.47
2023-05-06T17:39:20.568Z,1.50
2023-05-06T17:41:48.551Z,1.53
2023-05-06T17:44:18.106Z,1.50
2023-05-06T17:46:46.486Z,1.40
2023-05-06T17:49:14.654Z,1.20
2023-05-06T17:51:45.217Z,1.10
2023-05-06T17:54:14.513Z,1.50
2023-05-06T17:56:42.489Z,1.17
2023-05-06T17:59:11.278Z,1.00
2023-05-06T18:01:39.402Z,1.20
2023-05-06T18:04:07.464Z,1.13
2023-05-06T18:06:35.648Z,1.20
2023-05-06T18:09:03.611Z,1.47
2023-05-06T18:11:32.981Z,1.20
2023-05-06T18:14:00.961Z,1.30
2023-05-06T18:16:28.907Z,1.00
2023-05-06T18:18:56.866Z,1.23
2023-05-06T18:21:24.950Z,1.63
2023-05-06T18:23:58.713Z,1.20
2023-05-06T18:26:43.917Z,1.60
2023-05-06T18:29:14.587Z,2.43
2023-05-06T18:31:42.979Z,6.50
2023-05-06T18:34:11.057Z,6.30
2023-05-06T18:36:38.988Z,3.27
2023-05-06T18:39:07.237Z,2.83
2023-05-06T18:41:35.181Z,2.20
2023-05-06T18:44:04.074Z,5.53
2023-05-06T18:46:33.658Z,20.07
2023-05-06T18:49:01.944Z,8.67
2023-05-06T18:51:29.924Z,4.40
2023-05-06T18:53:57.908Z,2.70
2023-05-06T18:56:25.910Z,3.10
2023-05-06T18:58:53.851Z,4.80
2023-05-06T19:01:21.936Z,3.90
2023-05-06T19:03:51.766Z,2.50
2023-05-06T19:06:19.732Z,2.50
2023-05-06T19:08:47.700Z,2.93
2023-05-06T19:11:16.546Z,9.40
2023-05-06T19:13:44.857Z,14.07
2023-05-06T19:16:12.968Z,14.70
2023-05-06T19:18:41.001Z,10.83
2023-05-06T19:21:11.542Z,2.97
2023-05-06T19:23:39.756Z,3.23
2023-05-06T19:26:09.862Z,5.20
2023-05-06T19:28:38.217Z,5.70
2023-05-06T19:31:09.220Z,4.40
2023-05-06T19:33:37.420Z,3.30
2023-05-06T19:36:06.315Z,65.27
2023-05-06T19:38:35.863Z,38.13
2023-05-06T19:41:04.237Z,21.20
2023-05-06T19:43:32.182Z,46.50
2023-05-06T19:46:00.188Z,29.80
2023-05-06T19:48:28.143Z,43.33
2023-05-06T19:50:56.061Z,15.07
2023-05-06T19:53:24.135Z,4.57
2023-05-06T19:55:55.818Z,3.00
2023-05-06T19:58:23.758Z,2.57
2023-05-06T20:00:51.686Z,2.17
2023-05-06T20:03:19.759Z,1.63
2023-05-06T20:05:47.757Z,2.00
2023-05-06T20:08:15.685Z,1.70
2023-05-06T20:10:43.603Z,2.97
2023-05-06T20:13:12.877Z,2.37
2023-05-06T20:15:41.474Z,2.77
2023-05-06T20:18:09.554Z,3.07
2023-05-06T20:20:39.798Z,3.57
2023-05-06T20:23:07.907Z,3.93
2023-05-06T20:25:37.222Z,3.23
2023-05-06T20:28:06.404Z,3.57
2023-05-06T20:30:36.005Z,2.87
2023-05-06T20:33:04.082Z,2.70
2023-05-06T20:35:37.857Z,2.73
2023-05-06T20:38:06.397Z,2.47
2023-05-06T20:40:35.495Z,2.10
2023-05-06T20:43:03.652Z,1.87
2023-05-06T20:45:31.963Z,2.70
2023-05-06T20:48:01.277Z,2.20
2023-05-06T20:50:29.955Z,2.10
2023-05-06T20:52:57.895Z,2.23
2023-05-06T20:55:26.091Z,2.00
2023-05-06T20:57:54.136Z,1.63
2023-05-06T21:00:22.823Z,2.23
2023-05-06T21:02:50.792Z,2.27
2023-05-06T21:05:20.100Z,2.33
2023-05-06T21:07:48.033Z,2.60
2023-05-06T21:10:15.989Z,4.70
2023-05-06T21:12:48.295Z,2.83
2023-05-06T21:15:16.580Z,4.13
2023-05-06T21:17:44.834Z,4.03
2023-05-06T21:20:13.941Z,3.73
2023-05-06T21:22:43.230Z,3.30
2023-05-06T21:25:13.105Z,3.70
2023-05-06T21:27:41.246Z,3.23
2023-05-06T21:30:10.419Z,4.17
2023-05-06T21:32:38.439Z,2.97
2023-05-06T21:35:07.404Z,2.30
2023-05-06T21:37:35.646Z,2.53
2023-05-06T21:40:05.787Z,2.83
2023-05-06T21:42:33.774Z,2.63
2023-05-06T21:45:01.823Z,3.00
2023-05-06T21:47:29.743Z,2.67
2023-05-06T21:49:57.694Z,2.57
2023-05-06T21:52:25.746Z,2.60
2023-05-06T21:54:54.691Z,2.80
2023-05-06T21:57:24.020Z,3.10
2023-05-06T21:59:52.023Z,3.23
2023-05-06T22:02:20.087Z,3.20
2023-05-06T22:04:48.158Z,3.37
2023-05-06T22:07:16.462Z,3.30
2023-05-06T22:09:44.447Z,3.00
2023-05-06T22:12:12.831Z,3.20
2023-05-06T22:14:42.321Z,3.07
2023-05-06T22:17:10.825Z,3.20
2023-05-06T22:19:40.778Z,3.77
2023-05-06T22:22:09.187Z,3.23
2023-05-06T22:24:37.173Z,2.87
2023-05-06T22:27:05.106Z,3.20
2023-05-06T22:29:34.928Z,2.73
2023-05-06T22:32:04.285Z,3.07
2023-05-06T22:34:32.237Z,3.57
2023-05-06T22:37:01.155Z,3.37
2023-05-06T22:39:29.582Z,3.53
2023-05-06T22:41:57.520Z,3.37
2023-05-06T22:44:25.490Z,2.93
2023-05-06T22:46:54.761Z,2.57
2023-05-06T22:49:28.199Z,3.40
2023-05-06T22:51:57.029Z,3.30
2023-05-06T22:54:25.237Z,3.30
2023-05-06T22:56:53.236Z,2.53
2023-05-06T22:59:21.241Z,2.90
2023-05-06T23:01:49.247Z,2.83
2023-05-06T23:04:17.371Z,2.93
2023-05-06T23:06:46.713Z,3.20
2023-05-06T23:09:14.683Z,2.93
2023-05-06T23:11:43.150Z,2.80
2023-05-06T23:14:11.146Z,3.07
2023-05-06T23:16:39.122Z,2.97
2023-05-06T23:19:07.123Z,3.00
2023-05-06T23:21:35.196Z,3.53
2023-05-06T23:24:04.717Z,2.97
2023-05-06T23:26:32.654Z,2.60
2023-05-06T23:29:00.626Z,2.90
2023-05-06T23:31:28.664Z,3.03
2023-05-06T23:33:56.697Z,3.63
2023-05-06T23:36:24.641Z,3.73
2023-05-06T23:38:52.594Z,3.30
2023-05-06T23:41:21.896Z,3.33
2023-05-06T23:43:49.822Z,3.33
2023-05-06T23:46:17.814Z,3.57
2023-05-06T23:48:45.776Z,3.50
2023-05-06T23:51:13.732Z,2.90
2023-05-06T23:53:41.767Z,3.57
2023-05-06T23:56:09.730Z,3.80
2023-05-06T23:58:39.053Z,3.83
